sensor_id;sensor_type;location;lat;lon;timestamp;P1;durP1;ratioP1;P2;durP2;ratioP2
40601;SDS011;26310;50.278;19.032;2023-04-25T04:49:51;5.87;;;3.80;;
40601;SDS011;26310;50.278;19.032;2023-04-25T04:54:54;6.63;;;3.93;;
40601;SDS011;26310;50.278;19.032;2023-04-25T04:59:57;4.80;;;3.80;;
40601;SDS011;26310;50.278;19.032;2023-04-25T05:05:00;4.87;;;3.03;;
40601;SDS011;26310;50.278;19.032;2023-04-25T05:10:03;5.50;;;3.90;;
40601;SDS011;26310;50.278;19.032;2023-04-25T05:15:06;5.73;;;3.80;;
40601;SDS011;26310;50.278;19.032;2023-04-25T05:20:09;4.73;;;3.57;;
40601;SDS011;26310;50.278;19.032;2023-04-25T05:25:12;7.07;;;3.63;;
40601;SDS011;26310;50.278;19.032;2023-04-25T05:30:15;4.37;;;3.37;;
40601;SDS011;26310;50.278;19.032;2023-04-25T05:35:18;9.17;;;5.27;;
40601;SDS011;26310;50.278;19.032;2023-04-25T05:40:21;5.70;;;5.03;;
40601;SDS011;26310;50.278;19.032;2023-04-25T05:45:23;4.50;;;3.23;;
40601;SDS011;26310;50.278;19.032;2023-04-25T05:50:26;5.63;;;3.10;;
40601;SDS011;26310;50.278;19.032;2023-04-25T05:55:29;4.03;;;3.17;;
40601;SDS011;26310;50.278;19.032;2023-04-25T06:00:32;2.77;;;2.23;;
40601;SDS011;26310;50.278;19.032;2023-04-25T06:05:35;3.63;;;2.43;;
40601;SDS011;26310;50.278;19.032;2023-04-25T06:10:38;2.83;;;2.30;;
40601;SDS011;26310;50.278;19.032;2023-04-25T06:15:41;2.53;;;2.10;;
40601;SDS011;26310;50.278;19.032;2023-04-25T06:20:44;4.73;;;2.73;;
40601;SDS011;26310;50.278;19.032;2023-04-25T06:25:47;5.30;;;2.40;;
40601;SDS011;26310;50.278;19.032;2023-04-25T06:30:50;2.90;;;2.17;;
40601;SDS011;26310;50.278;19.032;2023-04-25T06:35:53;2.13;;;1.93;;
40601;SDS011;26310;50.278;19.032;2023-04-25T06:40:56;4.23;;;2.70;;
40601;SDS011;26310;50.278;19.032;2023-04-25T06:45:59;3.53;;;2.80;;
40601;SDS011;26310;50.278;19.032;2023-04-25T06:51:02;4.43;;;3.10;;
40601;SDS011;26310;50.278;19.032;2023-04-25T06:56:05;4.23;;;2.77;;
40601;SDS011;26310;50.278;19.032;2023-04-25T07:01:08;3.63;;;2.60;;
40601;SDS011;26310;50.278;19.032;2023-04-25T07:06:11;4.57;;;3.00;;
40601;SDS011;26310;50.278;19.032;2023-04-25T07:11:14;3.00;;;2.67;;
40601;SDS011;26310;50.278;19.032;2023-04-25T07:16:17;6.20;;;2.63;;
40601;SDS011;26310;50.278;19.032;2023-04-25T07:21:20;7.20;;;3.30;;
40601;SDS011;26310;50.278;19.032;2023-04-25T07:26:23;4.60;;;3.00;;
40601;SDS011;26310;50.278;19.032;2023-04-25T07:31:26;4.83;;;2.97;;
40601;SDS011;26310;50.278;19.032;2023-04-25T07:36:29;3.20;;;2.60;;
40601;SDS011;26310;50.278;19.032;2023-04-25T07:41:32;5.70;;;3.40;;
40601;SDS011;26310;50.278;19.032;2023-04-25T07:46:36;7.67;;;4.20;;
40601;SDS011;26310;50.278;19.032;2023-04-25T07:51:39;5.53;;;3.30;;
40601;SDS011;26310;50.278;19.032;2023-04-25T07:56:42;6.73;;;3.80;;
40601;SDS011;26310;50.278;19.032;2023-04-25T08:01:54;5.50;;;3.43;;
40601;SDS011;26310;50.278;19.032;2023-04-25T08:06:58;4.67;;;3.27;;
40601;SDS011;26310;50.278;19.032;2023-04-25T08:12:01;7.93;;;3.33;;
40601;SDS011;26310;50.278;19.032;2023-04-25T08:17:04;4.80;;;3.87;;
40601;SDS011;26310;50.278;19.032;2023-04-25T08:22:07;5.53;;;3.53;;
40601;SDS011;26310;50.278;19.032;2023-04-25T08:27:10;5.20;;;3.00;;
40601;SDS011;26310;50.278;19.032;2023-04-25T08:32:13;4.13;;;3.00;;
40601;SDS011;26310;50.278;19.032;2023-04-25T08:37:16;4.40;;;3.20;;
40601;SDS011;26310;50.278;19.032;2023-04-25T08:42:21;3.13;;;2.83;;
40601;SDS011;26310;50.278;19.032;2023-04-25T08:47:24;5.73;;;3.67;;
40601;SDS011;26310;50.278;19.032;2023-04-25T08:52:30;6.60;;;3.70;;
40601;SDS011;26310;50.278;19.032;2023-04-25T08:57:42;4.23;;;2.97;;
40601;SDS011;26310;50.278;19.032;2023-04-25T09:02:46;4.30;;;3.17;;
40601;SDS011;26310;50.278;19.032;2023-04-25T09:07:49;9.40;;;3.20;;
40601;SDS011;26310;50.278;19.032;2023-04-25T09:13:05;5.60;;;2.60;;
40601;SDS011;26310;50.278;19.032;2023-04-25T09:18:10;3.27;;;2.10;;
40601;SDS011;26310;50.278;19.032;2023-04-25T09:23:14;3.80;;;2.87;;
40601;SDS011;26310;50.278;19.032;2023-04-25T09:28:22;2.97;;;2.47;;
40601;SDS011;26310;50.278;19.032;2023-04-25T09:33:32;3.70;;;2.90;;
40601;SDS011;26310;50.278;19.032;2023-04-25T09:38:41;4.03;;;2.83;;
40601;SDS011;26310;50.278;19.032;2023-04-25T09:43:45;2.40;;;2.20;;
40601;SDS011;26310;50.278;19.032;2023-04-25T09:48:49;6.27;;;2.60;;
40601;SDS011;26310;50.278;19.032;2023-04-25T09:53:52;4.07;;;2.27;;
40601;SDS011;26310;50.278;19.032;2023-04-25T09:58:55;3.40;;;2.57;;
40601;SDS011;26310;50.278;19.032;2023-04-25T10:03:58;3.07;;;2.50;;
40601;SDS011;26310;50.278;19.032;2023-04-25T10:09:03;8.27;;;2.50;;
40601;SDS011;26310;50.278;19.032;2023-04-25T10:14:06;2.20;;;1.83;;
40601;SDS011;26310;50.278;19.032;2023-04-25T10:19:09;2.10;;;1.87;;
40601;SDS011;26310;50.278;19.032;2023-04-25T10:24:12;4.13;;;1.80;;
40601;SDS011;26310;50.278;19.032;2023-04-25T10:29:23;1.70;;;1.60;;
40601;SDS011;26310;50.278;19.032;2023-04-25T10:34:43;1.73;;;1.53;;
40601;SDS011;26310;50.278;19.032;2023-04-25T10:39:48;3.10;;;1.30;;
40601;SDS011;26310;50.278;19.032;2023-04-25T10:45:01;1.70;;;1.60;;
40601;SDS011;26310;50.278;19.032;2023-04-25T10:50:07;3.03;;;1.87;;
40601;SDS011;26310;50.278;19.032;2023-04-25T10:55:11;2.00;;;1.80;;
40601;SDS011;26310;50.278;19.032;2023-04-25T11:00:14;5.67;;;2.03;;
40601;SDS011;26310;50.278;19.032;2023-04-25T11:10:32;3.23;;;1.70;;
40601;SDS011;26310;50.278;19.032;2023-04-25T11:15:37;2.13;;;1.93;;
40601;SDS011;26310;50.278;19.032;2023-04-25T11:20:41;2.33;;;1.57;;
40601;SDS011;26310;50.278;19.032;2023-04-25T11:25:46;2.73;;;1.80;;
40601;SDS011;26310;50.278;19.032;2023-04-25T11:30:49;2.17;;;1.40;;
40601;SDS011;26310;50.278;19.032;2023-04-25T11:35:55;1.53;;;1.20;;
40601;SDS011;26310;50.278;19.032;2023-04-25T11:40:58;6.13;;;2.30;;
40601;SDS011;26310;50.278;19.032;2023-04-25T11:46:06;2.07;;;1.87;;
40601;SDS011;26310;50.278;19.032;2023-04-25T11:51:09;2.70;;;1.90;;
40601;SDS011;26310;50.278;19.032;2023-04-25T11:56:12;2.00;;;1.70;;
40601;SDS011;26310;50.278;19.032;2023-04-25T12:01:25;2.70;;;1.63;;
40601;SDS011;26310;50.278;19.032;2023-04-25T12:06:37;2.40;;;1.30;;
40601;SDS011;26310;50.278;19.032;2023-04-25T12:11:42;12.53;;;1.77;;
40601;SDS011;26310;50.278;19.032;2023-04-25T12:16:46;3.77;;;1.73;;
40601;SDS011;26310;50.278;19.032;2023-04-25T12:21:50;3.00;;;1.87;;
40601;SDS011;26310;50.278;19.032;2023-04-25T12:26:59;3.07;;;2.07;;
40601;SDS011;26310;50.278;19.032;2023-04-25T12:32:04;2.63;;;2.13;;
40601;SDS011;26310;50.278;19.032;2023-04-25T12:37:07;5.17;;;1.97;;
40601;SDS011;26310;50.278;19.032;2023-04-25T12:42:10;2.70;;;2.23;;
40601;SDS011;26310;50.278;19.032;2023-04-25T12:47:14;3.13;;;2.47;;
40601;SDS011;26310;50.278;19.032;2023-04-25T12:52:16;3.10;;;2.47;;
40601;SDS011;26310;50.278;19.032;2023-04-25T12:57:19;2.67;;;2.07;;
40601;SDS011;26310;50.278;19.032;2023-04-25T13:02:22;2.70;;;2.03;;
40601;SDS011;26310;50.278;19.032;2023-04-25T13:07:25;3.80;;;2.50;;
40601;SDS011;26310;50.278;19.032;2023-04-25T13:12:28;2.20;;;2.00;;
40601;SDS011;26310;50.278;19.032;2023-04-25T13:17:33;3.77;;;1.80;;
40601;SDS011;26310;50.278;19.032;2023-04-25T13:22:39;4.33;;;2.13;;
40601;SDS011;26310;50.278;19.032;2023-04-25T13:27:42;3.17;;;2.40;;
40601;SDS011;26310;50.278;19.032;2023-04-25T13:32:46;3.63;;;2.00;;
40601;SDS011;26310;50.278;19.032;2023-04-25T13:37:49;2.47;;;1.57;;
40601;SDS011;26310;50.278;19.032;2023-04-25T13:42:52;2.17;;;1.70;;
40601;SDS011;26310;50.278;19.032;2023-04-25T13:47:55;4.13;;;2.03;;
40601;SDS011;26310;50.278;19.032;2023-04-25T13:52:58;2.00;;;1.63;;
40601;SDS011;26310;50.278;19.032;2023-04-25T13:58:00;2.00;;;1.73;;
40601;SDS011;26310;50.278;19.032;2023-04-25T14:03:09;6.80;;;1.90;;
40601;SDS011;26310;50.278;19.032;2023-04-25T14:08:12;2.37;;;1.80;;
40601;SDS011;26310;50.278;19.032;2023-04-25T14:13:15;7.83;;;2.00;;
40601;SDS011;26310;50.278;19.032;2023-04-25T14:18:18;3.50;;;2.40;;
40601;SDS011;26310;50.278;19.032;2023-04-25T14:23:20;5.50;;;2.37;;
40601;SDS011;26310;50.278;19.032;2023-04-25T14:28:23;2.20;;;1.60;;
40601;SDS011;26310;50.278;19.032;2023-04-25T14:33:26;4.00;;;2.03;;
40601;SDS011;26310;50.278;19.032;2023-04-25T14:38:29;4.80;;;2.03;;
40601;SDS011;26310;50.278;19.032;2023-04-25T14:43:32;3.40;;;2.17;;
40601;SDS011;26310;50.278;19.032;2023-04-25T14:48:35;2.13;;;1.90;;
40601;SDS011;26310;50.278;19.032;2023-04-25T14:53:39;2.67;;;1.77;;
40601;SDS011;26310;50.278;19.032;2023-04-25T14:58:42;2.70;;;2.00;;
40601;SDS011;26310;50.278;19.032;2023-04-25T15:03:45;3.30;;;2.10;;
40601;SDS011;26310;50.278;19.032;2023-04-25T15:08:48;2.20;;;2.00;;
40601;SDS011;26310;50.278;19.032;2023-04-25T15:13:51;4.60;;;2.23;;
40601;SDS011;26310;50.278;19.032;2023-04-25T15:18:55;2.20;;;1.83;;
40601;SDS011;26310;50.278;19.032;2023-04-25T15:23:57;3.00;;;1.90;;
40601;SDS011;26310;50.278;19.032;2023-04-25T15:29:00;4.17;;;1.90;;
40601;SDS011;26310;50.278;19.032;2023-04-25T15:34:07;3.30;;;1.90;;
40601;SDS011;26310;50.278;19.032;2023-04-25T15:39:09;3.07;;;2.00;;
40601;SDS011;26310;50.278;19.032;2023-04-25T15:44:12;3.43;;;2.13;;
40601;SDS011;26310;50.278;19.032;2023-04-25T15:49:15;4.27;;;1.93;;
40601;SDS011;26310;50.278;19.032;2023-04-25T15:54:19;2.37;;;1.87;;
40601;SDS011;26310;50.278;19.032;2023-04-25T15:59:22;2.90;;;2.23;;
40601;SDS011;26310;50.278;19.032;2023-04-25T16:04:25;3.07;;;2.40;;
40601;SDS011;26310;50.278;19.032;2023-04-25T16:09:31;3.83;;;2.00;;
40601;SDS011;26310;50.278;19.032;2023-04-25T16:14:35;2.97;;;2.00;;
40601;SDS011;26310;50.278;19.032;2023-04-25T16:19:38;3.50;;;1.67;;
40601;SDS011;26310;50.278;19.032;2023-04-25T16:24:41;4.83;;;1.87;;
40601;SDS011;26310;50.278;19.032;2023-04-25T16:29:44;2.00;;;1.60;;
40601;SDS011;26310;50.278;19.032;2023-04-25T16:34:50;2.00;;;1.20;;
40601;SDS011;26310;50.278;19.032;2023-04-25T16:39:52;2.33;;;1.40;;
40601;SDS011;26310;50.278;19.032;2023-04-25T16:44:55;2.20;;;1.57;;
40601;SDS011;26310;50.278;19.032;2023-04-25T16:49:59;1.57;;;1.20;;
40601;SDS011;26310;50.278;19.032;2023-04-25T16:55:02;4.23;;;1.60;;
40601;SDS011;26310;50.278;19.032;2023-04-25T17:00:05;1.60;;;1.20;;
40601;SDS011;26310;50.278;19.032;2023-04-25T17:05:11;2.40;;;1.43;;
40601;SDS011;26310;50.278;19.032;2023-04-25T17:10:14;1.60;;;1.50;;
40601;SDS011;26310;50.278;19.032;2023-04-25T17:15:17;1.60;;;1.50;;
40601;SDS011;26310;50.278;19.032;2023-04-25T17:20:19;1.87;;;1.40;;
40601;SDS011;26310;50.278;19.032;2023-04-25T17:25:22;2.60;;;1.60;;
40601;SDS011;26310;50.278;19.032;2023-04-25T17:30:25;1.90;;;1.27;;
40601;SDS011;26310;50.278;19.032;2023-04-25T17:35:28;1.43;;;1.33;;
40601;SDS011;26310;50.278;19.032;2023-04-25T17:40:32;5.60;;;1.10;;
40601;SDS011;26310;50.278;19.032;2023-04-25T17:45:34;5.97;;;1.67;;
40601;SDS011;26310;50.278;19.032;2023-04-25T17:50:37;2.33;;;1.67;;
40601;SDS011;26310;50.278;19.032;2023-04-25T17:55:40;3.00;;;1.77;;
40601;SDS011;26310;50.278;19.032;2023-04-25T18:00:44;2.87;;;1.70;;
40601;SDS011;26310;50.278;19.032;2023-04-25T18:05:47;2.70;;;1.50;;
40601;SDS011;26310;50.278;19.032;2023-04-25T18:10:50;2.87;;;1.67;;
40601;SDS011;26310;50.278;19.032;2023-04-25T18:15:53;2.73;;;1.47;;
40601;SDS011;26310;50.278;19.032;2023-04-25T18:20:58;3.03;;;1.80;;
40601;SDS011;26310;50.278;19.032;2023-04-25T18:26:02;2.17;;;1.47;;
40601;SDS011;26310;50.278;19.032;2023-04-25T18:31:05;2.27;;;1.57;;
40601;SDS011;26310;50.278;19.032;2023-04-25T18:36:10;3.37;;;1.90;;
40601;SDS011;26310;50.278;19.032;2023-04-25T18:41:12;2.20;;;1.80;;
40601;SDS011;26310;50.278;19.032;2023-04-25T18:46:21;2.60;;;1.97;;
40601;SDS011;26310;50.278;19.032;2023-04-25T18:51:24;5.50;;;2.20;;
40601;SDS011;26310;50.278;19.032;2023-04-25T18:56:32;2.60;;;1.90;;
40601;SDS011;26310;50.278;19.032;2023-04-25T19:01:34;4.97;;;2.20;;
40601;SDS011;26310;50.278;19.032;2023-04-25T19:06:37;3.73;;;2.07;;
40601;SDS011;26310;50.278;19.032;2023-04-25T19:11:40;3.17;;;2.30;;
40601;SDS011;26310;50.278;19.032;2023-04-25T19:16:43;3.90;;;2.47;;
40601;SDS011;26310;50.278;19.032;2023-04-25T19:21:46;2.83;;;2.37;;
40601;SDS011;26310;50.278;19.032;2023-04-25T19:26:51;3.23;;;2.17;;
40601;SDS011;26310;50.278;19.032;2023-04-25T19:31:53;4.17;;;2.23;;
40601;SDS011;26310;50.278;19.032;2023-04-25T19:36:57;3.63;;;2.80;;
40601;SDS011;26310;50.278;19.032;2023-04-25T19:42:00;3.57;;;2.20;;
40601;SDS011;26310;50.278;19.032;2023-04-25T19:47:04;3.97;;;2.50;;
40601;SDS011;26310;50.278;19.032;2023-04-25T19:52:08;5.57;;;2.53;;
40601;SDS011;26310;50.278;19.032;2023-04-25T19:57:15;8.03;;;2.90;;
40601;SDS011;26310;50.278;19.032;2023-04-25T20:02:18;4.27;;;2.13;;
40601;SDS011;26310;50.278;19.032;2023-04-25T20:07:22;5.17;;;2.30;;
40601;SDS011;26310;50.278;19.032;2023-04-25T20:12:25;3.03;;;2.23;;
40601;SDS011;26310;50.278;19.032;2023-04-25T20:17:27;3.87;;;2.80;;
40601;SDS011;26310;50.278;19.032;2023-04-25T20:22:31;5.40;;;2.73;;
40601;SDS011;26310;50.278;19.032;2023-04-25T20:27:37;6.17;;;2.57;;
40601;SDS011;26310;50.278;19.032;2023-04-25T20:32:40;4.17;;;2.17;;
40601;SDS011;26310;50.278;19.032;2023-04-25T20:37:43;2.17;;;1.67;;
40601;SDS011;26310;50.278;19.032;2023-04-25T20:42:47;3.10;;;2.10;;
40601;SDS011;26310;50.278;19.032;2023-04-25T20:47:50;5.13;;;3.83;;
40601;SDS011;26310;50.278;19.032;2023-04-25T20:52:53;4.80;;;2.40;;
40601;SDS011;26310;50.278;19.032;2023-04-25T20:57:55;13.27;;;2.93;;
40601;SDS011;26310;50.278;19.032;2023-04-25T21:02:59;2.43;;;1.97;;
40601;SDS011;26310;50.278;19.032;2023-04-25T21:08:05;3.63;;;2.37;;
40601;SDS011;26310;50.278;19.032;2023-04-25T21:13:08;4.90;;;1.97;;
40601;SDS011;26310;50.278;19.032;2023-04-25T21:18:12;4.13;;;2.40;;
40601;SDS011;26310;50.278;19.032;2023-04-25T21:23:15;4.67;;;1.93;;
40601;SDS011;26310;50.278;19.032;2023-04-25T21:28:19;3.80;;;1.90;;
40601;SDS011;26310;50.278;19.032;2023-04-25T21:33:22;7.50;;;2.03;;
40601;SDS011;26310;50.278;19.032;2023-04-25T21:38:24;2.60;;;1.80;;
40601;SDS011;26310;50.278;19.032;2023-04-25T21:43:27;2.10;;;1.80;;
40601;SDS011;26310;50.278;19.032;2023-04-25T21:48:30;3.50;;;2.53;;
40601;SDS011;26310;50.278;19.032;2023-04-25T21:53:33;3.43;;;2.20;;
40601;SDS011;26310;50.278;19.032;2023-04-25T21:58:36;3.43;;;2.10;;
40601;SDS011;26310;50.278;19.032;2023-04-25T22:03:38;3.10;;;2.13;;
40601;SDS011;26310;50.278;19.032;2023-04-25T22:08:42;4.87;;;2.10;;
40601;SDS011;26310;50.278;19.032;2023-04-25T22:13:45;1.67;;;1.53;;
40601;SDS011;26310;50.278;19.032;2023-04-25T22:18:48;3.50;;;2.03;;
40601;SDS011;26310;50.278;19.032;2023-04-25T22:23:52;4.10;;;2.87;;
40601;SDS011;26310;50.278;19.032;2023-04-25T22:28:57;2.80;;;1.93;;
40601;SDS011;26310;50.278;19.032;2023-04-25T22:34:00;3.17;;;1.70;;
40601;SDS011;26310;50.278;19.032;2023-04-25T22:39:02;4.20;;;2.00;;
40601;SDS011;26310;50.278;19.032;2023-04-25T22:44:05;2.77;;;1.83;;
40601;SDS011;26310;50.278;19.032;2023-04-25T22:49:08;3.77;;;2.20;;
40601;SDS011;26310;50.278;19.032;2023-04-25T22:54:11;4.40;;;2.23;;
40601;SDS011;26310;50.278;19.032;2023-04-25T22:59:14;5.10;;;2.70;;
40601;SDS011;26310;50.278;19.032;2023-04-25T23:04:18;4.13;;;1.60;;
40601;SDS011;26310;50.278;19.032;2023-04-25T23:09:21;3.70;;;1.90;;
40601;SDS011;26310;50.278;19.032;2023-04-25T23:14:24;3.20;;;1.90;;
40601;SDS011;26310;50.278;19.032;2023-04-25T23:19:27;3.67;;;2.20;;
40601;SDS011;26310;50.278;19.032;2023-04-25T23:24:30;3.30;;;2.10;;
40601;SDS011;26310;50.278;19.032;2023-04-25T23:29:36;7.23;;;2.33;;
40601;SDS011;26310;50.278;19.032;2023-04-25T23:34:41;5.43;;;2.50;;
40601;SDS011;26310;50.278;19.032;2023-04-25T23:39:47;5.53;;;2.20;;
40601;SDS011;26310;50.278;19.032;2023-04-25T23:44:53;7.33;;;3.60;;
